Pacific, WA (98047)

1:33 PM PDT on August 27, 2016 (GMT -0700)
West Valley | | Change Station

Elev 144 ft 47.27 °N, 122.26 °W | Updated 9 seconds ago

Overcast
Overcast
75.0 °F
Feels Like 78 °F
N
2.0
Wind Variable Wind from East
Gusts 5.0 mph

Today
High -- | Low -- °F
--% Chance of Precip.
Yesterday
High -- | Low -- °F
Precip. -- in
Pressure 29.91 in
Visibility -9999.0 miles
Clouds Mostly Cloudy 3000 ft
Mostly Cloudy 4900 ft
Overcast 6000 ft
Heat Index 78 °F
Dew Point 58 °F
Humidity 56%
Rainfall 0.00 in
Snow Depth Not available.
6:22 AM 7:57 PM
Waning Crescent, 21% visible
METAR KPLU 272015Z AUTO 22007G17KT 160V260 BKN030 BKN049 OVC060 22/15 A2991 RMK AO2
Pressure 29.91 in
Visibility -9999.0 miles
Clouds Mostly Cloudy 3000 ft
Mostly Cloudy 4900 ft
Overcast 6000 ft
Heat Index 78 °F
Dew Point 58 °F
Humidity 56%
Rainfall 0.00 in
Snow Depth Not available.
6:22 AM 7:57 PM
Waning Crescent, 21% visible
METAR KPLU 272015Z AUTO 22007G17KT 160V260 BKN030 BKN049 OVC060 22/15 A2991 RMK AO2

10-Day Weather Forecast

Almanac

Astronomy

Aug. 27, 2016 Rise Set
Actual Time
Civil Twilight
Nautical Twilight
Astronomical Twilight
Moon
Length of Visible Light
Length of Day
Tomorrow will be .
, % of the Moon is Illuminated

Today's Extremes

State Highs State Lows

Community

WunderPhotos

Upload Photos

1,935,434 photos uploaded!

WunderBlog® & News

Nearby

Air Quality

  Air Quality AQ Index Pollutant
Not available.

Snow Depth

Station Depth Elevation

Earthquake Activity

City Distance Mag. Time & Date
Minimum magnitude displayed is 2.5.

Coastal Water Temperatures

Place Temperature

Stations

Nearby Weather Stations

Station Location Temp. Windchill Dew Point Humidity Wind Precip. Elev Updated Type
                   

Watches & Warnings

There are currently no watches in effect.